Time;durP1;ratioP1;P1;durP2;ratioP2;P2;SDS_P1;SDS_P2;PMS_P1;PMS_P2;Temp;Humidity;BMP_temperature;BMP_pressure;BME280_temperature;BME280_humidity;BME280_pressure;Samples;Min_cycle;Max_cycle;Signal;HPM_P1;HPM_P2
2020/12/25 00:00:13;;;;;;;;;;;10.50;80.10;;;;;;4856725;28;117772;-83
2020/12/25 00:02:39;;;;;;;;;;;10.50;80.10;;;;;;4857991;28;117278;-83
2020/12/25 00:05:05;;;;;;;;;;;10.50;80.00;;;;;;4856394;28;120462;-83
2020/12/25 00:07:30;;;;;;;;;;;10.50;79.90;;;;;;4855786;28;120602;-83
2020/12/25 00:09:56;;;;;;;;;;;10.50;80.00;;;;;;4873047;28;117783;-83
2020/12/25 00:12:21;;;;;;;;;;;10.40;79.90;;;;;;4858077;28;117484;-83
2020/12/25 00:14:47;;;;;;;;;;;10.50;80.00;;;;;;4855823;28;119503;-83
2020/12/25 00:17:13;;;;;;;;;;;10.40;79.90;;;;;;4857552;28;120063;-83
2020/12/25 00:19:38;;;;;;;;;;;10.40;79.90;;;;;;4858011;28;117581;-83
2020/12/25 00:22:04;;;;;;;;;;;10.40;80.00;;;;;;4858807;28;117553;-83
2020/12/25 00:24:29;;;;;;;;;;;10.40;79.90;;;;;;4874458;28;118545;-83
2020/12/25 00:26:57;;;;;;;;;;;10.40;79.80;;;;;;4858291;28;117472;-83
2020/12/25 00:29:23;;;;;;;;;;;10.40;79.80;;;;;;4859528;28;117459;-83
2020/12/25 00:31:48;;;;;;;;;;;10.40;79.80;;;;;;4874664;28;118281;-83
2020/12/25 00:34:14;;;;;;;;;;;10.40;79.80;;;;;;4858489;28;121433;-83
2020/12/25 00:36:46;;;;;;;;;;;10.40;79.80;;;;;;4859211;28;119872;-83
2020/12/25 00:39:17;;;;;;;;;;;10.40;79.80;;;;;;4860088;28;117841;-83
2020/12/25 00:41:45;;;;;;;;;;;10.40;79.80;;;;;;4862389;28;117962;-83
2020/12/25 00:44:11;;;;;;;;;;;10.40;79.70;;;;;;4853587;28;119301;-83
2020/12/25 00:46:40;;;;;;;;;;;10.40;79.80;;;;;;4869868;28;117509;-83
2020/12/25 00:49:05;;;;;;;;;;;10.40;79.90;;;;;;4854628;28;117511;-83
2020/12/25 00:51:31;;;;;;;;;;;10.40;79.80;;;;;;4854714;28;117911;-83
2020/12/25 00:53:57;;;;;;;;;;;10.40;79.80;;;;;;4869722;28;117438;-82
2020/12/25 00:56:22;;;;;;;;;;;10.40;79.80;;;;;;4853357;28;119636;-82
2020/12/25 00:58:48;;;;;;;;;;;10.40;79.70;;;;;;4855112;28;117619;-82
2020/12/25 01:01:13;;;;;;;;;;;10.40;79.70;;;;;;4871668;28;117783;-82
2020/12/25 01:03:39;;;;;;;;;;;10.30;79.60;;;;;;4854631;28;117549;-82
2020/12/25 01:06:10;;;;;;;;;;;10.40;79.80;;;;;;4853925;28;119718;-82
2020/12/25 01:08:36;;;;;;;;;;;10.40;79.70;;;;;;4871562;28;117699;-82
2020/12/25 01:11:01;;;;;;;;;;;10.40;79.70;;;;;;4872073;28;117719;-82
2020/12/25 01:13:27;;;;;;;;;;;10.40;79.80;;;;;;4871185;28;117747;-82
2020/12/25 01:15:53;;;;;;;;;;;10.40;79.60;;;;;;4871409;28;117998;-82
2020/12/25 01:18:18;;;;;;;;;;;10.40;79.70;;;;;;4855859;28;117434;-82
2020/12/25 01:20:44;;;;;;;;;;;10.30;79.60;;;;;;4871984;28;118006;-82
2020/12/25 01:23:09;;;;;;;;;;;10.40;79.60;;;;;;4855235;28;119239;-82
2020/12/25 01:25:35;;;;;;;;;;;10.40;79.60;;;;;;4871136;28;117495;-82
2020/12/25 01:28:00;;;;;;;;;;;10.30;79.50;;;;;;4856776;28;117536;-82
2020/12/25 01:30:26;;;;;;;;;;;10.30;79.50;;;;;;4856939;28;117363;-82
2020/12/25 01:32:51;;;;;;;;;;;10.30;79.60;;;;;;4856197;28;119648;-82
2020/12/25 01:35:17;;;;;;;;;;;10.30;79.60;;;;;;4872827;28;117866;-82
2020/12/25 01:37:43;;;;;;;;;;;10.30;79.50;;;;;;4857581;28;117384;-82
2020/12/25 01:40:08;;;;;;;;;;;10.40;79.50;;;;;;4874307;28;117340;-82
2020/12/25 01:42:34;;;;;;;;;;;10.30;79.50;;;;;;4856527;28;120945;-82
2020/12/25 01:45:00;;;;;;;;;;;10.30;79.50;;;;;;4872191;28;119508;-82
2020/12/25 01:47:26;;;;;;;;;;;10.30;79.50;;;;;;4858401;28;117540;-82
2020/12/25 01:49:54;;;;;;;;;;;10.30;79.40;;;;;;4858450;28;117790;-82
2020/12/25 01:52:20;;;;;;;;;;;10.30;79.50;;;;;;4858427;28;119359;-82
2020/12/25 01:54:46;;;;;;;;;;;10.30;79.50;;;;;;4874589;28;117738;-82
2020/12/25 01:57:13;;;;;;;;;;;10.30;79.40;;;;;;4856691;28;117315;-82
2020/12/25 01:59:39;;;;;;;;;;;10.30;79.50;;;;;;4869770;28;117744;-82
2020/12/25 02:02:04;;;;;;;;;;;10.30;79.40;;;;;;4869476;28;118646;-82
2020/12/25 02:04:30;;;;;;;;;;;10.30;79.40;;;;;;4852572;28;118395;-82
2020/12/25 02:06:55;;;;;;;;;;;10.30;79.40;;;;;;4853378;28;117462;-82
2020/12/25 02:09:21;;;;;;;;;;;10.30;79.30;;;;;;4869638;28;117418;-82
2020/12/25 02:11:49;;;;;;;;;;;10.30;79.40;;;;;;4853709;28;119452;-82
2020/12/25 02:14:14;;;;;;;;;;;10.30;79.50;;;;;;4853550;28;119852;-82
2020/12/25 02:16:40;;;;;;;;;;;10.30;79.40;;;;;;4854173;28;117511;-82
2020/12/25 02:19:06;;;;;;;;;;;10.30;79.40;;;;;;4855168;28;117374;-82
2020/12/25 02:21:31;;;;;;;;;;;10.30;79.50;;;;;;4853431;28;121245;-82
2020/12/25 02:23:57;;;;;;;;;;;10.30;79.50;;;;;;4853983;28;118018;-82
2020/12/25 02:26:22;;;;;;;;;;;10.30;79.50;;;;;;4855054;28;117373;-82
2020/12/25 02:28:48;;;;;;;;;;;10.30;79.40;;;;;;4871119;28;117413;-82
2020/12/25 02:31:13;;;;;;;;;;;10.20;79.40;;;;;;4854092;28;119333;-82
2020/12/25 02:33:39;;;;;;;;;;;10.30;79.40;;;;;;4854090;28;118029;-82
2020/12/25 02:36:04;;;;;;;;;;;10.30;79.50;;;;;;4855116;28;117491;-82
2020/12/25 02:38:30;;;;;;;;;;;10.30;79.40;;;;;;4857323;28;117522;-82
2020/12/25 02:40:56;;;;;;;;;;;10.30;79.40;;;;;;4858458;28;117652;-82
2020/12/25 02:43:24;;;;;;;;;;;10.20;79.40;;;;;;4858327;28;118109;-82
2020/12/25 02:45:49;;;;;;;;;;;10.20;79.40;;;;;;4859509;28;117560;-82
2020/12/25 02:48:15;;;;;;;;;;;10.20;79.40;;;;;;4860072;28;117922;-82
2020/12/25 02:50:40;;;;;;;;;;;10.20;79.40;;;;;;4859536;28;121020;-82
2020/12/25 02:53:06;;;;;;;;;;;10.20;79.40;;;;;;4875245;28;118263;-82
2020/12/25 02:55:32;;;;;;;;;;;10.20;79.30;;;;;;4860698;28;117317;-82
2020/12/25 02:57:57;;;;;;;;;;;10.20;79.30;;;;;;4860355;28;117869;-82
2020/12/25 03:00:23;;;;;;;;;;;10.20;79.40;;;;;;4875641;28;117927;-82
2020/12/25 03:02:48;;;;;;;;;;;10.20;79.40;;;;;;4860564;28;118339;-82
2020/12/25 03:05:14;;;;;;;;;;;10.20;79.40;;;;;;4861344;28;117418;-82
2020/12/25 03:07:39;;;;;;;;;;;10.20;79.40;;;;;;4860942;28;117943;-82
2020/12/25 03:10:05;;;;;;;;;;;10.20;79.40;;;;;;4859601;28;121585;-82
2020/12/25 03:12:30;;;;;;;;;;;10.20;79.30;;;;;;4855505;28;118627;-82
2020/12/25 03:14:56;;;;;;;;;;;10.20;79.40;;;;;;4855896;28;117410;-82
2020/12/25 03:17:21;;;;;;;;;;;10.20;79.40;;;;;;4856630;28;117749;-82
2020/12/25 03:19:47;;;;;;;;;;;10.20;79.30;;;;;;4855234;28;117574;-82
2020/12/25 03:22:13;;;;;;;;;;;10.20;79.40;;;;;;4855135;28;119869;-82
2020/12/25 03:24:38;;;;;;;;;;;10.20;79.30;;;;;;4856448;28;117617;-82
2020/12/25 03:27:04;;;;;;;;;;;10.20;79.40;;;;;;4856511;28;117726;-82
2020/12/25 03:29:29;;;;;;;;;;;10.10;79.40;;;;;;4855812;28;118455;-82
2020/12/25 03:31:55;;;;;;;;;;;10.20;79.40;;;;;;4856018;28;119084;-82
2020/12/25 03:34:20;;;;;;;;;;;10.10;79.30;;;;;;4872438;28;117650;-82
2020/12/25 03:36:46;;;;;;;;;;;10.10;79.30;;;;;;4857300;28;117437;-82
2020/12/25 03:39:11;;;;;;;;;;;10.20;79.40;;;;;;4855566;28;118801;-82
2020/12/25 03:41:37;;;;;;;;;;;10.20;79.40;;;;;;4855978;28;117425;-82
2020/12/25 03:44:02;;;;;;;;;;;10.20;79.40;;;;;;4857267;28;117723;-82
2020/12/25 03:46:37;;;;;;;;;;;10.10;79.30;;;;;;4873322;28;117929;-82
2020/12/25 03:49:02;;;;;;;;;;;10.20;79.40;;;;;;4871999;28;118754;-82
2020/12/25 03:51:28;;;;;;;;;;;10.20;79.30;;;;;;4856930;28;118689;-82
2020/12/25 03:53:54;;;;;;;;;;;10.10;79.30;;;;;;4873679;28;117526;-82
2020/12/25 03:56:19;;;;;;;;;;;10.20;79.30;;;;;;4858280;28;117838;-82
2020/12/25 03:58:45;;;;;;;;;;;10.10;79.30;;;;;;4857200;28;119205;-83
2020/12/25 04:01:10;;;;;;;;;;;10.10;79.30;;;;;;4857408;28;118850;-83
2020/12/25 04:03:36;;;;;;;;;;;10.10;79.30;;;;;;4859021;28;117432;-83
2020/12/25 04:06:01;;;;;;;;;;;10.10;79.40;;;;;;4859468;28;117598;-83
2020/12/25 04:08:27;;;;;;;;;;;10.10;79.30;;;;;;4858199;28;120610;-83
2020/12/25 04:10:52;;;;;;;;;;;10.10;79.40;;;;;;4873983;28;117824;-83
2020/12/25 04:13:18;;;;;;;;;;;10.10;79.30;;;;;;4859409;28;117924;-83
2020/12/25 04:15:43;;;;;;;;;;;10.10;79.40;;;;;;4860024;28;117471;-83
2020/12/25 04:18:09;;;;;;;;;;;10.10;79.30;;;;;;4859193;28;119354;-83
2020/12/25 04:20:34;;;;;;;;;;;10.10;79.30;;;;;;4859351;28;117897;-83
2020/12/25 04:23:00;;;;;;;;;;;10.10;79.40;;;;;;4861780;28;117595;-83
2020/12/25 04:25:26;;;;;;;;;;;10.10;79.30;;;;;;4872393;28;117316;-83
2020/12/25 04:27:51;;;;;;;;;;;10.10;79.30;;;;;;4870454;28;119515;-83
2020/12/25 04:30:17;;;;;;;;;;;10.10;79.30;;;;;;4853953;28;117385;-83
2020/12/25 04:32:42;;;;;;;;;;;10.10;79.30;;;;;;4871244;28;117580;-83
2020/12/25 04:35:08;;;;;;;;;;;10.10;79.30;;;;;;4855022;28;117910;-83
2020/12/25 04:37:33;;;;;;;;;;;10.10;79.30;;;;;;4854732;28;120495;-83
2020/12/25 04:39:59;;;;;;;;;;;10.10;79.40;;;;;;4854744;28;117353;-83
2020/12/25 04:42:25;;;;;;;;;;;10.10;79.30;;;;;;4855565;28;117378;-81
2020/12/25 04:44:51;;;;;;;;;;;10.10;79.30;;;;;;4855840;28;117821;-82
2020/12/25 04:47:16;;;;;;;;;;;10.10;79.40;;;;;;4854499;28;120642;-82
2020/12/25 04:49:43;;;;;;;;;;;10.10;79.90;;;;;;4870425;28;118233;-82
2020/12/25 04:52:09;;;;;;;;;;;10.10;79.30;;;;;;4855800;28;117384;-82
2020/12/25 04:54:35;;;;;;;;;;;10.10;79.30;;;;;;4856597;28;117871;-82
2020/12/25 04:57:00;;;;;;;;;;;10.10;79.30;;;;;;4855248;28;120520;-82
2020/12/25 04:59:26;;;;;;;;;;;10.10;79.30;;;;;;4854100;28;118950;-82
2020/12/25 05:01:52;;;;;;;;;;;10.10;79.40;;;;;;4871379;28;117577;-82
2020/12/25 05:04:18;;;;;;;;;;;10.10;79.30;;;;;;4856254;28;117354;-82
2020/12/25 05:06:45;;;;;;;;;;;10.10;79.30;;;;;;4855140;28;117651;-82
2020/12/25 05:09:13;;;;;;;;;;;10.00;79.30;;;;;;4855997;28;120929;-82
2020/12/25 05:11:39;;;;;;;;;;;10.10;79.30;;;;;;4856721;28;116690;-82
2020/12/25 05:14:04;;;;;;;;;;;10.00;79.20;;;;;;4857393;28;117878;-82
2020/12/25 05:16:30;;;;;;;;;;;10.10;79.20;;;;;;4856325;28;120745;-82
2020/12/25 05:18:55;;;;;;;;;;;10.00;79.20;;;;;;4856685;28;119987;-83
2020/12/25 05:21:21;;;;;;;;;;;10.10;79.30;;;;;;4858243;28;117418;-83
2020/12/25 05:23:47;;;;;;;;;;;10.10;79.30;;;;;;4873792;28;117259;-83
2020/12/25 05:26:13;;;;;;;;;;;10.00;79.20;;;;;;4857156;28;118849;-83
2020/12/25 05:28:42;;;;;;;;;;;10.00;79.20;;;;;;4857494;28;118120;-83
2020/12/25 05:31:08;;;;;;;;;;;10.00;79.20;;;;;;4875044;28;117610;-83
2020/12/25 05:33:34;;;;;;;;;;;10.00;79.20;;;;;;4876002;28;117715;-83
2020/12/25 05:36:01;;;;;;;;;;;10.00;79.20;;;;;;4874407;28;118190;-83
2020/12/25 05:38:30;;;;;;;;;;;10.00;79.10;;;;;;4872969;28;117714;-83
2020/12/25 05:40:55;;;;;;;;;;;10.00;79.20;;;;;;4869797;28;117357;-83
2020/12/25 05:43:21;;;;;;;;;;;10.00;79.10;;;;;;4869936;28;117465;-83
2020/12/25 05:45:49;;;;;;;;;;;10.00;79.20;;;;;;4852975;28;118670;-83
2020/12/25 05:48:14;;;;;;;;;;;10.00;79.30;;;;;;4852716;28;118704;-83
2020/12/25 05:50:40;;;;;;;;;;;10.00;79.10;;;;;;4853811;28;118049;-83
2020/12/25 05:53:06;;;;;;;;;;;10.00;79.10;;;;;;4854935;28;117417;-83
2020/12/25 05:55:32;;;;;;;;;;;10.00;79.10;;;;;;4853311;28;118246;-83
2020/12/25 05:57:57;;;;;;;;;;;10.00;79.10;;;;;;4853322;28;117947;-83
2020/12/25 06:00:23;;;;;;;;;;;10.00;79.10;;;;;;4855024;28;117449;-83
2020/12/25 06:02:49;;;;;;;;;;;10.00;79.20;;;;;;4854652;28;117358;-83
2020/12/25 06:05:18;;;;;;;;;;;10.00;79.10;;;;;;4854144;28;119569;-83
2020/12/25 06:07:47;;;;;;;;;;;10.00;79.20;;;;;;4869609;28;118271;-83
2020/12/25 06:10:14;;;;;;;;;;;10.00;79.10;;;;;;4870539;28;117701;-83
2020/12/25 06:12:42;;;;;;;;;;;10.00;79.20;;;;;;4856894;28;117329;-83
2020/12/25 06:15:11;;;;;;;;;;;10.00;79.10;;;;;;4857222;28;118480;-82
2020/12/25 06:17:37;;;;;;;;;;;10.00;79.20;;;;;;4858255;28;118993;-82
2020/12/25 06:20:06;;;;;;;;;;;10.00;79.20;;;;;;4858661;28;117635;-82
2020/12/25 06:22:38;;;;;;;;;;;10.00;79.10;;;;;;4859480;28;117770;-82
2020/12/25 06:25:07;;;;;;;;;;;10.00;79.20;;;;;;4858106;28;117402;-82
2020/12/25 06:27:33;;;;;;;;;;;10.00;79.10;;;;;;4858029;28;119488;-82
2020/12/25 06:30:00;;;;;;;;;;;10.00;79.10;;;;;;4859665;28;117543;-82
2020/12/25 06:32:25;;;;;;;;;;;9.90;79.00;;;;;;4860181;28;117387;-82
2020/12/25 06:34:55;;;;;;;;;;;9.90;79.10;;;;;;4858032;28;120751;-82
2020/12/25 06:37:22;;;;;;;;;;;9.90;79.10;;;;;;4857783;28;119148;-82
2020/12/25 06:39:48;;;;;;;;;;;9.90;79.00;;;;;;4874601;28;117555;-82
2020/12/25 06:42:14;;;;;;;;;;;9.90;79.10;;;;;;4860134;28;117522;-82
2020/12/25 06:44:43;;;;;;;;;;;9.90;79.10;;;;;;4858621;28;121113;-82
2020/12/25 06:47:10;;;;;;;;;;;9.90;79.10;;;;;;4875047;28;118086;-82
2020/12/25 06:49:36;;;;;;;;;;;9.90;79.10;;;;;;4876346;28;117701;-83
2020/12/25 06:52:02;;;;;;;;;;;9.90;79.10;;;;;;4876849;28;117584;-83
2020/12/25 06:54:27;;;;;;;;;;;9.90;79.00;;;;;;4855396;28;119615;-83
2020/12/25 06:56:53;;;;;;;;;;;9.90;79.00;;;;;;4855507;28;119668;-82
2020/12/25 06:59:19;;;;;;;;;;;9.90;79.00;;;;;;4855855;28;117565;-82
2020/12/25 07:01:45;;;;;;;;;;;9.90;79.00;;;;;;4855922;28;117844;-82
2020/12/25 07:04:23;;;;;;;;;;;9.90;79.00;;;;;;4855589;28;120671;-82
2020/12/25 07:06:56;;;;;;;;;;;9.90;79.00;;;;;;4870905;28;117452;-82
2020/12/25 07:09:21;;;;;;;;;;;9.90;79.00;;;;;;4856383;28;117455;-82
2020/12/25 07:11:51;;;;;;;;;;;9.90;79.00;;;;;;4857203;28;117779;-82
2020/12/25 07:14:16;;;;;;;;;;;9.90;79.00;;;;;;4855991;28;121050;-82
2020/12/25 07:16:42;;;;;;;;;;;9.90;79.00;;;;;;4856409;28;118600;-82
2020/12/25 07:19:07;;;;;;;;;;;9.90;79.00;;;;;;4856505;28;118229;-82
2020/12/25 07:21:33;;;;;;;;;;;9.90;79.00;;;;;;4856892;28;117818;-82
2020/12/25 07:23:58;;;;;;;;;;;9.90;79.00;;;;;;4855601;28;119719;-82
2020/12/25 07:26:24;;;;;;;;;;;9.90;79.10;;;;;;4855703;28;117852;-82
2020/12/25 07:28:49;;;;;;;;;;;9.90;79.00;;;;;;4857326;28;117476;-82
2020/12/25 07:31:15;;;;;;;;;;;9.90;79.10;;;;;;4873402;28;117500;-82
2020/12/25 07:33:40;;;;;;;;;;;9.90;79.00;;;;;;4872647;28;117578;-82
2020/12/25 07:36:12;;;;;;;;;;;9.90;79.00;;;;;;4856662;28;119536;-82
2020/12/25 07:38:38;;;;;;;;;;;9.90;79.00;;;;;;4856897;28;117690;-82
2020/12/25 07:41:03;;;;;;;;;;;9.90;79.00;;;;;;4874510;28;117862;-82
2020/12/25 07:43:29;;;;;;;;;;;9.90;79.00;;;;;;4873325;28;117645;-82
2020/12/25 07:45:55;;;;;;;;;;;9.80;78.90;;;;;;4857099;28;118177;-82
2020/12/25 07:48:21;;;;;;;;;;;9.80;78.90;;;;;;4874379;28;117622;-82
2020/12/25 07:50:47;;;;;;;;;;;9.80;79.00;;;;;;4874313;28;117770;-82
2020/12/25 07:53:13;;;;;;;;;;;9.80;78.90;;;;;;4857634;28;119192;-82
2020/12/25 07:55:39;;;;;;;;;;;9.80;79.00;;;;;;4857912;28;118693;-82
2020/12/25 07:58:04;;;;;;;;;;;9.80;78.90;;;;;;4859506;28;117375;-82
2020/12/25 08:00:30;;;;;;;;;;;9.80;78.90;;;;;;4858995;28;117287;-82
2020/12/25 08:02:56;;;;;;;;;;;9.80;79.50;;;;;;4858917;28;118419;-82
2020/12/25 08:05:22;;;;;;;;;;;9.80;78.90;;;;;;4859247;28;119329;-82
2020/12/25 08:07:48;;;;;;;;;;;9.80;78.90;;;;;;4871258;28;117567;-82
2020/12/25 08:10:14;;;;;;;;;;;9.80;78.90;;;;;;4855199;28;117672;-82
2020/12/25 08:12:42;;;;;;;;;;;9.80;78.90;;;;;;4870233;28;117655;-82
2020/12/25 08:15:07;;;;;;;;;;;9.80;78.90;;;;;;4853594;28;118695;-82
2020/12/25 08:17:33;;;;;;;;;;;9.80;78.80;;;;;;4854914;28;117403;-82
2020/12/25 08:20:01;;;;;;;;;;;9.80;78.80;;;;;;4855471;28;117670;-82
2020/12/25 08:22:26;;;;;;;;;;;9.80;78.90;;;;;;4854042;28;118649;-82
2020/12/25 08:24:52;;;;;;;;;;;9.80;78.80;;;;;;4870185;28;117760;-82
2020/12/25 08:27:19;;;;;;;;;;;9.80;78.90;;;;;;4870906;28;117514;-82
2020/12/25 08:29:44;;;;;;;;;;;9.80;78.80;;;;;;4855501;28;117766;-83
2020/12/25 08:32:10;;;;;;;;;;;9.80;78.80;;;;;;4854971;28;121158;-82
2020/12/25 08:34:36;;;;;;;;;;;9.80;78.80;;;;;;4854325;28;118054;-82
2020/12/25 08:37:04;;;;;;;;;;;9.80;78.80;;;;;;4854877;28;117484;-82
2020/12/25 08:39:33;;;;;;;;;;;9.80;78.80;;;;;;4871444;28;117677;-82
2020/12/25 08:41:58;;;;;;;;;;;9.80;78.90;;;;;;4854658;28;118758;-82
2020/12/25 08:44:27;;;;;;;;;;;9.80;78.80;;;;;;4855413;28;117781;-82
2020/12/25 08:47:08;;;;;;;;;;;9.80;78.90;;;;;;4856108;28;117314;-82
2020/12/25 08:49:37;;;;;;;;;;;9.70;78.90;;;;;;4856654;28;117838;-83
2020/12/25 08:52:19;;;;;;;;;;;9.80;78.80;;;;;;4855451;28;121435;-83
2020/12/25 08:54:52;;;;;;;;;;;9.70;78.80;;;;;;4855507;28;118424;-83
2020/12/25 08:57:17;;;;;;;;;;;9.70;78.70;;;;;;4872715;28;117781;-83
2020/12/25 08:59:43;;;;;;;;;;;9.80;78.80;;;;;;4872672;28;117914;-83
2020/12/25 09:02:11;;;;;;;;;;;9.70;78.70;;;;;;4856421;28;118661;-83
2020/12/25 09:04:36;;;;;;;;;;;9.70;78.80;;;;;;4855406;28;120076;-83
2020/12/25 09:07:02;;;;;;;;;;;9.70;78.80;;;;;;4872730;28;117560;-83
2020/12/25 09:09:27;;;;;;;;;;;9.70;78.80;;;;;;4857846;28;117371;-83
2020/12/25 09:11:53;;;;;;;;;;;9.70;78.80;;;;;;4857237;28;119049;-83
2020/12/25 09:14:18;;;;;;;;;;;9.70;78.80;;;;;;4856456;28;119738;-83
2020/12/25 09:16:44;;;;;;;;;;;9.70;78.90;;;;;;4858437;28;117600;-83
2020/12/25 09:19:09;;;;;;;;;;;9.70;78.80;;;;;;4859345;28;117477;-83
2020/12/25 09:21:37;;;;;;;;;;;9.70;78.90;;;;;;4854153;28;118687;-83
2020/12/25 09:24:03;;;;;;;;;;;9.70;78.80;;;;;;4853345;28;117686;-82
2020/12/25 09:26:30;;;;;;;;;;;9.70;78.70;;;;;;4853651;28;117499;-82
2020/12/25 09:28:55;;;;;;;;;;;9.70;78.70;;;;;;4869378;28;117938;-82
2020/12/25 09:31:21;;;;;;;;;;;9.70;78.80;;;;;;4853778;28;119928;-82
2020/12/25 09:33:46;;;;;;;;;;;9.70;78.90;;;;;;4853808;28;120627;-82
2020/12/25 09:36:12;;;;;;;;;;;9.70;78.80;;;;;;4854513;28;117326;-82
2020/12/25 09:38:42;;;;;;;;;;;9.70;78.80;;;;;;4853992;28;119330;-82
2020/12/25 09:41:08;;;;;;;;;;;9.70;78.80;;;;;;4854122;28;119919;-82
2020/12/25 09:43:35;;;;;;;;;;;9.70;78.80;;;;;;4853200;28;119046;-82
2020/12/25 09:46:00;;;;;;;;;;;9.70;78.70;;;;;;4854926;28;117550;-82
2020/12/25 09:48:26;;;;;;;;;;;9.70;78.60;;;;;;4854400;28;117849;-82
2020/12/25 09:50:51;;;;;;;;;;;9.70;78.70;;;;;;4854447;28;120245;-82
2020/12/25 09:53:17;;;;;;;;;;;9.70;78.60;;;;;;4853069;28;119181;-82
2020/12/25 09:55:43;;;;;;;;;;;9.70;78.70;;;;;;4854698;28;117724;-82
2020/12/25 09:58:08;;;;;;;;;;;9.70;78.70;;;;;;4871123;28;117768;-82
2020/12/25 10:00:34;;;;;;;;;;;9.60;78.60;;;;;;4869461;28;118343;-82
2020/12/25 10:03:00;;;;;;;;;;;9.70;79.30;;;;;;4870443;28;117368;-82
2020/12/25 10:05:25;;;;;;;;;;;9.70;78.70;;;;;;4871178;28;117408;-82
2020/12/25 10:07:54;;;;;;;;;;;9.60;78.70;;;;;;4855385;28;117719;-82
2020/12/25 10:10:20;;;;;;;;;;;9.70;78.60;;;;;;4855210;28;120512;-82
2020/12/25 10:12:46;;;;;;;;;;;9.60;78.60;;;;;;4855242;28;117594;-82
2020/12/25 10:15:12;;;;;;;;;;;9.60;78.50;;;;;;4872510;28;117421;-82
2020/12/25 10:17:37;;;;;;;;;;;9.60;78.50;;;;;;4872413;28;117940;-82
2020/12/25 10:20:03;;;;;;;;;;;9.60;78.50;;;;;;4855119;28;117783;-82
2020/12/25 10:22:28;;;;;;;;;;;9.60;78.30;;;;;;4855536;28;119547;-82
2020/12/25 10:24:54;;;;;;;;;;;9.60;78.40;;;;;;4857135;28;117240;-82
2020/12/25 10:27:19;;;;;;;;;;;9.60;78.90;;;;;;4857764;28;118127;-82
2020/12/25 10:29:45;;;;;;;;;;;9.60;78.40;;;;;;4872409;28;119097;-82
2020/12/25 10:32:18;;;;;;;;;;;9.60;78.40;;;;;;4856629;28;119371;-82
2020/12/25 10:34:43;;;;;;;;;;;9.60;78.40;;;;;;4857163;28;117485;-82
2020/12/25 10:37:17;;;;;;;;;;;9.60;78.40;;;;;;4853145;28;117972;-82
2020/12/25 10:39:42;;;;;;;;;;;9.60;78.50;;;;;;4852429;28;117487;-82
2020/12/25 10:42:08;;;;;;;;;;;9.60;78.40;;;;;;4851740;28;119398;-82
2020/12/25 10:44:37;;;;;;;;;;;9.60;78.40;;;;;;4869186;28;117383;-82
2020/12/25 10:47:05;;;;;;;;;;;9.60;78.30;;;;;;4853921;28;117553;-82
2020/12/25 10:49:31;;;;;;;;;;;9.60;78.30;;;;;;4868585;28;117432;-82
2020/12/25 10:51:56;;;;;;;;;;;9.60;78.20;;;;;;4852737;28;117483;-82
2020/12/25 10:54:22;;;;;;;;;;;9.60;78.30;;;;;;4869174;28;117766;-82
2020/12/25 10:56:48;;;;;;;;;;;9.60;78.40;;;;;;4853813;28;117848;-82
2020/12/25 10:59:13;;;;;;;;;;;9.60;78.20;;;;;;4854003;28;119204;-82
2020/12/25 11:01:39;;;;;;;;;;;9.60;78.20;;;;;;4855512;28;117921;-82
2020/12/25 11:04:04;;;;;;;;;;;9.60;78.00;;;;;;4856378;28;117461;-82
2020/12/25 11:06:37;;;;;;;;;;;9.60;78.00;;;;;;4856179;28;117711;-82
2020/12/25 11:09:03;;;;;;;;;;;9.60;78.20;;;;;;4856325;28;118353;-82
2020/12/25 11:11:29;;;;;;;;;;;9.60;78.20;;;;;;4871997;28;118031;-82
2020/12/25 11:13:55;;;;;;;;;;;9.60;78.10;;;;;;4873006;28;117534;-82
2020/12/25 11:16:21;;;;;;;;;;;9.60;77.90;;;;;;4857916;28;117894;-82
2020/12/25 11:18:50;;;;;;;;;;;9.50;78.00;;;;;;4856634;28;118384;-83
2020/12/25 11:21:22;;;;;;;;;;;9.60;78.10;;;;;;4857098;28;119877;-83
2020/12/25 11:23:48;;;;;;;;;;;9.60;78.00;;;;;;4873680;28;117513;-83
2020/12/25 11:26:18;;;;;;;;;;;9.60;77.90;;;;;;4858388;28;117457;-83
2020/12/25 11:28:43;;;;;;;;;;;9.60;78.50;;;;;;4873130;28;118856;-83
2020/12/25 11:31:10;;;;;;;;;;;9.60;78.00;;;;;;4856389;28;119925;-83
2020/12/25 11:33:36;;;;;;;;;;;9.60;78.00;;;;;;4858498;28;117652;-83
2020/12/25 11:36:01;;;;;;;;;;;9.60;77.80;;;;;;4858531;28;117396;-83
2020/12/25 11:38:27;;;;;;;;;;;9.60;77.90;;;;;;4873155;28;118729;-83
2020/12/25 11:40:52;;;;;;;;;;;9.60;77.80;;;;;;4857598;28;119636;-83
2020/12/25 11:43:21;;;;;;;;;;;9.60;77.90;;;;;;4859069;28;117606;-83
2020/12/25 11:45:46;;;;;;;;;;;9.60;77.80;;;;;;4859543;28;117927;-83
2020/12/25 11:48:11;;;;;;;;;;;9.60;77.90;;;;;;4873032;28;121294;-83
2020/12/25 11:50:40;;;;;;;;;;;9.60;77.90;;;;;;4854085;28;118877;-83
2020/12/25 11:53:05;;;;;;;;;;;9.60;77.90;;;;;;4855454;28;117423;-83
2020/12/25 11:55:31;;;;;;;;;;;9.50;77.80;;;;;;4855570;28;117234;-83
2020/12/25 11:57:56;;;;;;;;;;;9.50;77.80;;;;;;4870391;28;118384;-83
2020/12/25 12:00:22;;;;;;;;;;;9.50;77.80;;;;;;4853722;28;118221;-83
2020/12/25 12:02:47;;;;;;;;;;;9.50;77.70;;;;;;4855359;28;117517;-83
2020/12/25 12:05:13;;;;;;;;;;;9.50;77.80;;;;;;4856076;28;117413;-83
2020/12/25 12:07:39;;;;;;;;;;;9.50;77.70;;;;;;4854282;28;120556;-83
2020/12/25 12:10:04;;;;;;;;;;;9.50;77.70;;;;;;4854384;28;119154;-83
2020/12/25 12:12:30;;;;;;;;;;;9.50;77.60;;;;;;4855506;28;117628;-83
2020/12/25 12:14:55;;;;;;;;;;;9.50;77.80;;;;;;4856416;28;117959;-83
2020/12/25 12:17:21;;;;;;;;;;;9.50;77.60;;;;;;4854695;28;120092;-83
2020/12/25 12:19:46;;;;;;;;;;;9.50;77.60;;;;;;4869811;28;117609;-83
2020/12/25 12:22:12;;;;;;;;;;;9.50;77.50;;;;;;4855574;28;117484;-83
2020/12/25 12:24:37;;;;;;;;;;;9.50;77.70;;;;;;4855994;28;117742;-83
2020/12/25 12:27:03;;;;;;;;;;;9.50;77.50;;;;;;4870901;28;117779;-83
2020/12/25 12:29:29;;;;;;;;;;;9.50;77.40;;;;;;4855262;28;119573;-83
2020/12/25 12:31:54;;;;;;;;;;;9.50;77.40;;;;;;4872256;28;117544;-83
2020/12/25 12:34:20;;;;;;;;;;;9.50;77.40;;;;;;4857192;28;117936;-83
2020/12/25 12:36:45;;;;;;;;;;;9.50;77.50;;;;;;4855985;28;119240;-83
2020/12/25 12:39:11;;;;;;;;;;;9.50;77.60;;;;;;4871391;28;117702;-82
2020/12/25 12:41:36;;;;;;;;;;;9.50;77.40;;;;;;4857379;28;117507;-82
2020/12/25 12:44:02;;;;;;;;;;;9.50;77.50;;;;;;4872851;28;117614;-82
2020/12/25 12:46:27;;;;;;;;;;;9.50;77.40;;;;;;4872075;28;120390;-82
2020/12/25 12:48:53;;;;;;;;;;;9.50;77.40;;;;;;4856056;28;119825;-82
2020/12/25 12:51:18;;;;;;;;;;;9.40;77.30;;;;;;4857610;28;117589;-82
2020/12/25 12:53:44;;;;;;;;;;;9.40;77.30;;;;;;4857892;28;117955;-82
2020/12/25 12:56:11;;;;;;;;;;;9.50;77.30;;;;;;4873204;28;117563;-82
2020/12/25 12:58:36;;;;;;;;;;;9.40;77.20;;;;;;4856938;28;117505;-82
2020/12/25 13:01:02;;;;;;;;;;;9.40;77.20;;;;;;4858886;28;117300;-82
2020/12/25 13:03:27;;;;;;;;;;;9.40;77.20;;;;;;4870250;28;117701;-82
2020/12/25 13:05:53;;;;;;;;;;;9.40;77.10;;;;;;4853425;28;120649;-82
2020/12/25 13:08:18;;;;;;;;;;;9.40;77.00;;;;;;4852354;28;118896;-82
2020/12/25 13:10:44;;;;;;;;;;;9.40;77.30;;;;;;4870323;28;117717;-82
2020/12/25 13:13:09;;;;;;;;;;;9.40;76.90;;;;;;4854411;28;118325;-82
2020/12/25 13:15:35;;;;;;;;;;;9.40;77.10;;;;;;4853328;28;121203;-82
2020/12/25 13:18:00;;;;;;;;;;;9.40;77.10;;;;;;4853179;28;118064;-82
2020/12/25 13:20:35;;;;;;;;;;;9.40;76.90;;;;;;4854006;28;117317;-82
2020/12/25 13:23:00;;;;;;;;;;;9.40;76.90;;;;;;4870259;28;117535;-82
2020/12/25 13:25:26;;;;;;;;;;;9.40;76.90;;;;;;4869445;28;120400;-82
2020/12/25 13:27:51;;;;;;;;;;;9.40;76.90;;;;;;4853544;28;118495;-82
2020/12/25 13:30:17;;;;;;;;;;;9.40;77.00;;;;;;4854157;28;118018;-82
2020/12/25 13:32:43;;;;;;;;;;;9.40;76.90;;;;;;4854735;28;117715;-82
2020/12/25 13:35:09;;;;;;;;;;;9.40;77.00;;;;;;4854345;28;118430;-82
2020/12/25 13:37:34;;;;;;;;;;;9.40;76.90;;;;;;4869823;28;118680;-82
2020/12/25 13:40:00;;;;;;;;;;;9.40;76.90;;;;;;4854909;28;117431;-82
2020/12/25 13:42:25;;;;;;;;;;;9.40;76.90;;;;;;4855552;28;117563;-82
2020/12/25 13:44:51;;;;;;;;;;;9.40;76.90;;;;;;4870536;28;117493;-82
2020/12/25 13:47:16;;;;;;;;;;;9.40;76.80;;;;;;4854419;28;117480;-82
2020/12/25 13:49:42;;;;;;;;;;;9.40;76.80;;;;;;4855358;28;117482;-82
2020/12/25 13:52:07;;;;;;;;;;;9.40;76.70;;;;;;4855567;28;117317;-82
2020/12/25 13:54:33;;;;;;;;;;;9.40;76.70;;;;;;4855007;28;117661;-82
2020/12/25 13:56:58;;;;;;;;;;;9.40;76.80;;;;;;4854602;28;118660;-82
2020/12/25 13:59:24;;;;;;;;;;;9.40;76.60;;;;;;4855698;28;117676;-82
2020/12/25 14:01:49;;;;;;;;;;;9.40;76.50;;;;;;4872471;28;117248;-82
2020/12/25 14:04:15;;;;;;;;;;;9.40;76.80;;;;;;4855916;28;117544;-82